Luang Namtha Airport

About
Name: Luang Namtha Airport
Identifier:  LXG/VLLN
Operator:  Laos Civil Aviation Authority
Public/Private:  Public/Civil Aviation Authority
Local Time:  23. Aug 03:55 +07
Description: Louangnamtha Airport is an airport in Laos, 6 km south of the city of Luang Namtha. The airport was closed between 2006 and 2008 for a renovation that extended the runway from 1,200 to 1,600 metres, allowing larger aircraft such as the ATR 72 to use the airport, and built a new 700 m2 passenger terminal.
Source: Wikipedia
Location
Luang Namtha
  Laos

Flights per Day
4 flights
Distance: 352km (219mi)
Punctuality
67% (1 flights per day delayed)
Delay Average: 114 minutes
Current Weather
 24 C (Humidity: 100%)
  2kt (3km/h / 2mph) from 140°
  Scattered clouds at 1,300 feet (396 meter)
  Overcast at 10,000 feet (3,048 meter)
  6km (3 mi.)
No significant changes expected

 Drizzle
 METAR VLLN 221200Z 14002KT 6000 DZ SCT013 OVC100 24/24 Q1008 NOSIG

Current Flights

Departures
Number Departure To Airline
Arrivals
Number Arrival From Airline
 LK220 11:00  Vientiane Lao Skyway
 QV601 13:35  Vientiane Lao Airlines

Current Delays

Departures
N/A
Arrivals
N/A

Destinations

Top Destinations
Airport Flights
per week
Seats
per week
  Vientiane (VTE) 11 784 1 112

Airlines & Planes

Top Airlines
Airline Flights
per Day
Seats
per Day
Lao Airlines 1 112
Top Plane Types
Model Flights Seats
ATR 76-600 1.6/day 112/day 112